Latest Weather Observations for Holsworthy

IDN60801

Issued at 2:05 pm EST Saturday 2 August 2014 (issued every 30 minutes, with the page automatically refreshed every 10 minutes)

About weather observations | Map of weather stations | Latest weather observations for NSW | Other Formats
Station Details ID: 066161 Name: HOLSWORTHY AERODROME AWS Lat: -33.99 Lon: 150.95 Height: 68.16 m
Data from the previous 72 hours. | See also: Recent months for locations in New South Wales
Date/Time
EST
Temp
°C
App
Temp
°C
Dew
Point
Rel
Hum
%
Delta-T
°C
Wind Press
QNH
hPa
Press
MSL
hPa
Rain
since 9 am
mm
Dir
 
Spd
km/h
Gust
km/h
Spd
kts
Gust
kts
02/02:00pm 14.6 8.7 -1.1 34 6.4 SSE 20 28 11 15 1026.0 1026.1 0.0
02/01:30pm 14.6 8.1 -2.8 30 6.9 SSW 22 30 12 16 1025.5 - 0.0
02/01:00pm 14.6 9.7 -3.2 29 7.0 S 13 20 7 11 1025.3 1025.4 0.0
02/12:30pm 14.8 10.1 -1.7 32 6.7 SW 13 24 7 13 1025.5 - 0.0
02/12:00pm 14.3 8.9 -1.3 34 6.3 WSW 17 26 9 14 1025.7 1025.8 0.0
02/11:30am 13.8 8.0 -1.8 34 6.3 SW 19 28 10 15 1025.8 - 0.0
02/11:00am 12.8 6.7 -2.6 34 6.0 SSW 20 30 11 16 1026.0 1026.1 0.0
02/10:30am 12.4 6.0 -1.9 37 5.7 WSW 22 32 12 17 1025.8 - 0.0
02/10:00am 11.3 4.5 -1.8 40 5.1 WSW 24 33 13 18 1025.7 1025.8 0.0
02/09:30am 10.7 4.0 -1.4 43 4.8 SW 24 35 13 19 1025.2 - 0.0
02/09:00am 9.9 3.7 -0.6 48 4.1 WSW 22 35 12 19 1024.8 1024.9 -
02/08:30am 8.9 3.0 -0.7 51 3.8 WSW 20 28 11 15 1024.2 - -
02/08:00am 7.6 2.7 -0.6 56 3.2 WSW 15 20 8 11 1023.5 1023.5 -
02/07:30am 5.2 1.8 -0.6 66 2.2 WSW 7 11 4 6 1023.0 - -
02/07:00am 4.7 1.3 -0.7 68 2.0 WSW 7 9 4 5 1022.1 1022.1 -
02/06:30am 4.9 0.7 -0.7 67 2.1 WSW 11 17 6 9 1021.5 - -
02/06:00am 5.8 1.6 -0.7 63 2.4 SSW 11 15 6 8 1021.0 1021.0 -
02/05:30am 5.1 0.9 -0.9 65 2.2 SW 11 17 6 9 1020.5 - -
02/05:00am 5.2 1.4 -1.0 64 2.3 WSW 9 11 5 6 1019.8 1019.8 -
02/04:30am 6.5 1.9 -0.7 60 2.7 W 13 19 7 10 1019.3 - -
02/04:00am 7.2 2.3 -0.7 57 3.0 WSW 15 20 8 11 1019.1 1019.1 -
02/03:30am 7.5 2.2 -0.7 56 3.2 W 17 26 9 14 1018.4 - -
02/03:00am 7.7 2.3 -1.0 54 3.3 W 17 24 9 13 1018.0 1018.0 0.0
02/02:30am 7.4 2.8 -1.0 55 3.2 WSW 13 20 7 11 1018.2 - -
02/02:00am 7.4 3.2 -0.8 56 3.1 WSW 11 22 6 12 1017.9 1017.9 -
02/01:30am 8.1 3.2 -0.6 54 3.4 W 15 24 8 13 1017.3 - -
02/01:00am 8.1 2.9 -0.1 56 3.2 W 17 24 9 13 1017.3 1017.3 -
02/12:30am 7.8 3.0 0.5 60 2.9 W 15 28 8 15 1017.2 - -
02/12:00am 6.4 2.8 0.7 67 2.2 NW 9 17 5 9 1016.9 1016.9 -
 
Date/Time
EST
Temp
°C
App
Temp
°C
Dew
Point
Rel
Hum
%
Delta-T
°C
Wind Press
QNH
hPa
Press
MSL
hPa
Rain
since 9 am
mm
Dir
 
Spd
km/h
Gust
km/h
Spd
kts
Gust
kts
01/11:30pm 5.8 2.8 0.8 70 2.0 SW 6 9 3 5 1016.9 - -
01/11:00pm 6.0 2.5 1.3 72 1.9 NW 9 11 5 6 1015.9 1015.9 -
01/10:30pm 5.8 3.6 1.2 72 1.8 WNW 2 15 1 8 1016.1 - -
01/10:00pm 7.0 3.6 1.9 70 2.1 WNW 9 17 5 9 1016.0 1016.0 -
01/09:30pm 7.4 3.3 2.1 69 2.2 WNW 13 20 7 11 1015.6 - -
01/09:00pm 7.5 3.4 2.4 70 2.1 WNW 13 24 7 13 1015.5 1015.5 0.0
01/08:30pm 7.4 3.7 2.5 71 2.0 WNW 11 20 6 11 1015.5 - -
01/08:00pm 7.7 3.3 2.6 70 2.1 WNW 15 24 8 13 1014.9 1014.9 -
01/07:30pm 8.9 2.8 2.7 65 2.6 W 24 37 13 20 1015.1 - -
01/07:21pm 9.7 2.7 2.1 59 3.2 W 28 50 15 27 1014.9 - -
01/07:00pm 10.4 4.6 0.2 49 4.1 WNW 20 35 11 19 1014.4 1014.4 -
01/06:30pm 11.2 5.4 -0.3 45 4.7 WNW 20 33 11 18 1013.5 - -
01/06:00pm 12.3 6.2 -2.3 36 5.7 WNW 20 32 11 17 1012.5 1012.6 -
01/05:30pm 12.7 7.8 -3.1 33 6.1 WNW 13 24 7 13 1011.5 - -
01/05:00pm 13.6 7.4 -3.2 31 6.5 WNW 20 41 11 22 1010.7 1010.7 -
01/04:30pm 14.7 9.1 -3.1 29 7.0 W 17 26 9 14 1010.0 - -
01/04:00pm 14.8 6.5 -4.5 26 7.4 W 30 44 16 24 1009.5 1009.5 -
01/03:31pm 15.2 7.4 -4.2 26 7.5 W 28 46 15 25 1009.2 - -
01/03:30pm 15.2 7.0 -4.2 26 7.5 W 30 46 16 25 1009.2 - -
01/03:00pm 15.2 6.0 -4.7 25 7.6 W 35 56 19 30 1008.9 1008.9 -
01/02:43pm 15.5 7.2 -5.0 24 7.8 W 30 52 16 28 1008.7 - -
01/02:30pm 15.9 8.5 -3.6 26 7.7 W 26 43 14 23 1008.6 - -
01/02:19pm 15.7 7.9 -4.2 25 7.8 W 28 46 15 25 1008.5 - -
01/02:00pm 16.3 10.2 -2.2 28 7.6 WNW 20 32 11 17 1008.4 1008.4 -
01/01:30pm 15.6 7.9 -2.8 28 7.4 W 28 44 15 24 1008.1 - -
01/01:00pm 15.3 6.9 -2.2 30 7.1 W 32 59 17 32 1008.1 1008.1 -
01/12:37pm 14.7 7.3 -1.0 34 6.5 WSW 28 48 15 26 1008.2 - -
01/12:30pm 16.2 10.0 -0.5 32 7.1 WSW 22 35 12 19 1008.1 - -
01/12:00pm 16.4 9.2 0.9 35 6.8 WSW 28 48 15 26 1008.0 1008.0 -
01/11:52am 15.5 8.2 0.1 35 6.6 W 28 48 15 26 1008.1 - 0.0
01/11:30am 15.5 8.9 -0.7 33 6.8 W 24 41 13 22 1008.2 - 0.0
01/11:00am 15.1 8.8 1.3 39 6.0 WSW 24 35 13 19 1007.6 1007.6 0.0
01/10:30am 16.4 11.4 3.8 43 5.9 W 19 28 10 15 1007.6 - 0.0
01/10:00am 16.5 11.6 4.2 44 5.8 WSW 19 24 10 13 1007.5 1007.5 0.0
01/09:30am 17.1 13.0 4.1 42 6.1 WNW 15 22 8 12 1007.4 - 0.0
01/09:00am 16.5 11.9 3.9 43 5.9 NW 17 22 9 12 1007.4 1007.5 0.0
01/08:30am 16.1 12.7 4.2 45 5.6 WNW 11 17 6 9 1007.2 - 0.0
01/08:00am 15.0 11.8 3.2 45 5.4 W 9 15 5 8 1007.0 1007.1 0.0
01/07:30am 14.3 10.9 1.9 43 5.4 SW 9 13 5 7 1006.7 - 0.0
01/07:00am 14.8 10.8 0.3 37 6.2 W 11 20 6 11 1006.3 1006.3 0.0
01/06:30am 15.6 11.1 -0.6 33 6.8 WNW 13 22 7 12 1005.3 - 0.0
01/06:00am 15.4 10.8 -0.8 33 6.8 NW 13 19 7 10 1004.7 1004.7 0.0
01/05:30am 13.9 10.1 -0.9 36 6.1 NW 9 15 5 8 1004.3 - 0.0
01/05:00am 13.4 10.1 -1.3 36 6.0 WNW 6 11 3 6 1004.3 1004.3 0.0
01/04:30am 9.1 5.8 -1.0 49 3.9 SW 6 13 3 7 1003.8 - 0.0
01/04:00am 12.7 8.9 -0.5 40 5.4 NE 9 15 5 8 1003.5 1003.5 0.0
01/03:30am 10.6 6.9 0.1 48 4.3 E 9 13 5 7 1003.9 - 0.0
01/03:00am 12.9 9.4 -1.1 38 5.7 NE 7 9 4 5 1004.0 1004.0 0.0
01/02:30am 13.9 10.1 -0.9 36 6.1 N 9 13 5 7 1004.3 - 0.0
01/02:00am 14.6 10.8 -0.7 35 6.4 NNE 9 13 5 7 1004.8 1004.8 0.0
01/01:30am 15.4 11.6 -0.8 33 6.8 ENE 9 13 5 7 1005.0 - 0.0
01/01:00am 15.9 11.7 -0.8 32 7.0 NE 11 15 6 8 1005.3 1005.3 0.0
01/12:30am 16.1 11.6 -0.6 32 7.1 N 13 17 7 9 1005.5 - 0.0
01/12:00am 17.4 12.1 -0.8 29 7.8 N 17 26 9 14 1005.6 1005.6 0.0
 
Date/Time
EST
Temp
°C
App
Temp
°C
Dew
Point
Rel
Hum
%
Delta-T
°C
Wind Press
QNH
hPa
Press
MSL
hPa
Rain
since 9 am
mm
Dir
 
Spd
km/h
Gust
km/h
Spd
kts
Gust
kts
31/11:30pm 17.5 12.3 -0.2 30 7.6 N 17 24 9 13 1005.9 - 0.0
31/11:00pm 17.7 12.1 -0.1 30 7.7 N 19 30 10 16 1005.9 1005.9 0.0
31/10:30pm 18.0 12.4 0.2 30 7.8 N 19 26 10 14 1006.0 - 0.0
31/10:00pm 17.8 12.3 0.5 31 7.6 N 19 32 10 17 1006.0 1006.0 0.0
31/09:30pm 17.8 12.7 0.5 31 7.6 N 17 24 9 13 1006.2 - 0.0
31/09:00pm 18.0 12.8 0.2 30 7.8 N 17 20 9 11 1006.5 1006.5 0.0
31/08:30pm 18.0 13.6 0.2 30 7.8 N 13 20 7 11 1006.8 - 0.0
31/08:00pm 18.4 13.2 0.1 29 8.0 N 17 26 9 14 1006.5 1006.5 0.0
31/07:30pm 18.6 13.8 0.2 29 8.1 NNW 15 24 8 13 1006.6 - 0.0
31/07:00pm 19.4 14.2 -0.1 27 8.6 NNW 17 22 9 12 1006.8 1006.8 0.0
31/06:30pm 20.1 15.0 0.5 27 8.8 NNW 17 26 9 14 1006.6 - 0.0
31/06:00pm 20.5 15.2 -0.7 24 9.3 NNW 17 26 9 14 1006.3 1006.3 0.0
31/05:30pm 21.2 16.0 -0.1 24 9.5 NNW 17 24 9 13 1006.2 - 0.0
31/05:00pm 22.5 16.8 -0.9 21 10.4 NW 19 32 10 17 1006.4 1006.4 0.0
31/04:30pm 23.5 16.4 -1.4 19 11.1 NNW 26 48 14 26 1006.3 - 0.0
31/04:00pm 24.1 16.3 -0.9 19 11.3 NNW 30 50 16 27 1006.4 1006.4 0.0
31/03:42pm 24.3 16.8 -1.5 18 11.5 NW 28 46 15 25 1006.5 - 0.0
31/03:30pm 24.5 18.3 -0.6 19 11.4 NW 22 35 12 19 1006.5 - 0.0
31/03:00pm 24.6 17.8 0.8 21 11.1 WNW 26 50 14 27 1006.8 1006.8 0.0
31/02:35pm 24.4 16.3 0.0 20 11.2 WNW 32 50 17 27 1007.1 - 0.0
31/02:30pm 24.6 16.6 0.2 20 11.3 WNW 32 46 17 25 1007.2 - 0.0
31/02:00pm 24.5 16.7 -0.6 19 11.4 NW 30 48 16 26 1007.5 1007.6 0.0
31/01:35pm 24.4 16.0 -0.7 19 11.4 NW 33 56 18 30 1007.9 - 0.0
31/01:30pm 24.5 16.2 -0.6 19 11.4 NW 33 50 18 27 1008.0 - 0.0
31/01:00pm 24.8 17.1 -0.4 19 11.5 NW 30 54 16 29 1008.7 1008.8 0.0
31/12:37pm 24.4 16.3 0.0 20 11.2 WNW 32 50 17 27 1009.2 - 0.0
31/12:30pm 24.8 18.9 1.7 22 11.0 WNW 22 35 12 19 1009.4 - 0.0
31/12:00pm 23.5 18.7 4.5 29 9.4 NNW 19 28 10 15 1010.4 1010.5 0.0
31/11:30am 22.2 17.3 4.3 31 8.8 NNW 19 30 10 16 1011.4 - 0.0
31/11:00am 21.4 16.5 4.0 32 8.4 NNW 19 33 10 18 1012.0 1012.1 0.0
31/10:30am 20.8 16.0 4.4 34 8.0 NNW 19 30 10 16 1012.8 - 0.0
31/10:00am 19.6 15.4 5.6 40 6.9 N 17 26 9 14 1013.2 1013.3 0.0
31/09:30am 17.9 14.1 5.8 45 5.9 N 15 20 8 11 1013.6 - 0.0
31/09:00am 16.7 12.9 5.6 48 5.4 NNW 15 24 8 13 1013.9 1014.0 0.0
31/08:30am 15.3 12.3 5.8 53 4.6 N 11 20 6 11 1014.0 - 0.0
31/08:00am 13.7 10.7 6.1 60 3.6 N 11 17 6 9 1014.2 1014.3 0.0
31/07:30am 12.4 9.8 6.0 65 3.0 NNW 9 13 5 7 1014.4 - 0.0
31/07:00am 12.0 9.0 5.9 66 2.9 N 11 17 6 9 1014.2 1014.3 0.0
31/06:30am 12.8 9.4 5.7 62 3.3 NNW 13 19 7 10 1014.2 - 0.0
31/06:00am 12.3 9.3 6.1 66 2.9 NW 11 17 6 9 1014.0 1014.1 0.0
31/05:30am 12.6 8.9 6.4 66 3.0 NNW 15 22 8 12 1013.9 - 0.0
31/05:00am 13.0 9.4 6.6 65 3.1 NNW 15 20 8 11 1014.1 1014.2 0.0
31/04:30am 13.2 10.0 7.0 66 3.0 NNW 13 19 7 10 1014.1 - 0.0
31/04:00am 12.7 9.6 7.2 69 2.7 NNW 13 15 7 8 1014.2 1014.3 0.0
31/03:30am 12.2 9.4 7.1 71 2.5 NNW 11 17 6 9 1014.4 - 0.0
31/03:00am 12.7 10.4 7.4 70 2.6 NNW 9 15 5 8 1014.6 1014.6 0.0
31/02:30am 12.9 10.6 7.4 69 2.7 NNW 9 15 5 8 1014.8 - 0.0
31/02:00am 12.8 10.5 7.5 70 2.6 NNW 9 11 5 6 1015.2 1015.2 0.0
31/01:30am 13.1 10.8 7.5 69 2.7 N 9 13 5 7 1015.4 - 0.0
31/01:00am 13.0 10.8 7.7 70 2.6 N 9 15 5 8 1015.6 1015.6 0.0
31/12:30am 12.4 10.4 7.1 70 2.6 N 7 11 4 6 1015.9 - 0.0
31/12:00am 12.5 10.2 7.4 71 2.5 N 9 13 5 7 1016.3 1016.3 0.0
 
Date/Time
EST
Temp
°C
App
Temp
°C
Dew
Point
Rel
Hum
%
Delta-T
°C
Wind Press
QNH
hPa
Press
MSL
hPa
Rain
since 9 am
mm
Dir
 
Spd
km/h
Gust
km/h
Spd
kts
Gust
kts
30/11:30pm 12.1 10.0 6.6 69 2.6 N 7 11 4 6 1016.6 - 0.0
30/11:00pm 11.7 9.7 6.4 70 2.5 N 6 11 3 6 1016.9 1016.9 0.0
30/10:30pm 13.3 11.3 6.9 65 3.1 N 7 9 4 5 1017.1 - 0.0
30/10:00pm 12.7 10.7 7.0 68 2.7 N 7 9 4 5 1017.2 1017.2 0.0
30/09:30pm 12.1 10.8 6.2 67 2.8 NNW 2 7 1 4 1017.3 - 0.0
30/09:00pm 13.2 11.3 6.8 65 3.1 NE 6 7 3 4 1017.3 1017.3 0.0
30/08:30pm 14.5 12.5 6.3 58 4.0 NNE 6 7 3 4 1017.3 - 0.0
30/08:00pm 15.9 13.5 6.9 55 4.4 N 9 13 5 7 1017.4 1017.4 0.0
30/07:30pm 15.9 14.0 6.6 54 4.6 NW 6 9 3 5 1017.4 - 0.0
30/07:00pm 15.9 13.7 6.3 53 4.7 W 7 11 4 6 1017.3 1017.3 0.0
30/06:30pm 16.9 14.4 6.4 50 5.2 SW 9 13 5 7 1016.9 - 0.0
30/06:00pm 18.2 14.9 6.4 46 5.9 WNW 13 19 7 10 1016.5 1016.5 0.0
30/05:30pm 19.1 15.5 6.6 44 6.3 WNW 15 22 8 12 1016.1 - 0.0
30/05:00pm 20.2 16.5 6.2 40 7.0 WNW 15 24 8 13 1015.5 1015.5 0.0
30/04:30pm 21.6 18.3 6.3 37 7.8 WNW 13 22 7 12 1015.2 - 0.0
30/04:00pm 22.2 18.4 6.0 35 8.2 NW 15 24 8 13 1014.9 1014.9 0.0
30/03:30pm 22.6 18.5 6.4 35 8.3 NW 17 28 9 15 1014.5 - 0.0
30/03:00pm 22.7 18.6 6.0 34 8.5 WNW 17 28 9 15 1014.6 1014.6 0.0
30/02:30pm 23.1 19.0 6.4 34 8.6 W 17 24 9 13 1014.6 - 0.0

Other Formats:

Comma delimited format used in spreadsheet applications
http://www.bom.gov.au/fwo/IDN60801/IDN60801.95761.axf

JavaScript Object Notation format (JSON) in row-major order
http://www.bom.gov.au/fwo/IDN60801/IDN60801.95761.json